Terminal Aerodrome Forecast
Issued by NWS Bismarck, ND

Home | Current Version | Previous Version | Text Only | Print | Product List | Glossary On
Versions: 1 2 3 4 5 6 7 8 9 10 11 12 13 14 15 16 17 18 19 20 21 22 23 24 25 26 27 28
000
FTUS43 KBIS 231738
TAFBIS
TAF
KBIS 231738Z 2318/2418 VRB03KT P6SM SCT090 BKN250
     FM232000 24006KT P6SM FEW140
     FM240900 27009KT P6SM BKN100
     FM241200 29013G21KT P6SM BKN090
     FM241500 30017G26KT P6SM SCT110=

USA.gov is the U.S. government's official web portal to all federal, state and local government web resources and services.